Time,TemperatureF,DewpointF,PressureIn,WindDirection,WindDirectionDegrees,WindSpeedMPH,WindSpeedGustMPH,Humidity,HourlyPrecipIn,Conditions,Clouds,dailyrainin,SoftwareType,DateUTC
2013-09-19 00:06:00,76.1,74.0,30.05,WNW,288,2.0,4.0,92,0.00,,,0.00,weatherlink.com 1.10,2013-09-19 04:06:00,
2013-09-19 00:21:00,76.0,74.0,30.05,West,276,3.0,3.0,93,0.00,,,0.00,weatherlink.com 1.10,2013-09-19 04:21:00,
2013-09-19 00:37:00,75.8,74.0,30.05,West,278,0.0,3.0,93,0.00,,,0.00,weatherlink.com 1.10,2013-09-19 04:37:00,
2013-09-19 00:53:00,75.4,73.0,30.04,WNW,287,0.0,1.0,93,0.00,,,0.00,weatherlink.com 1.10,2013-09-19 04:53:00,
2013-09-19 01:09:00,75.2,73.0,30.03,WNW,295,0.0,3.0,93,0.00,,,0.00,weatherlink.com 1.10,2013-09-19 05:09:00,
2013-09-19 01:25:00,74.9,73.0,30.03,WNW,295,0.0,0.0,94,0.00,,,0.00,weatherlink.com 1.10,2013-09-19 05:25:00,
2013-09-19 01:41:00,74.7,73.0,30.03,WNW,287,0.0,0.0,95,0.00,,,0.00,weatherlink.com 1.10,2013-09-19 05:41:00,
2013-09-19 01:57:00,74.7,73.0,30.03,WNW,293,0.0,0.0,95,0.00,,,0.00,weatherlink.com 1.10,2013-09-19 05:57:00,
2013-09-19 02:12:00,74.8,73.0,30.02,NW,325,0.0,0.0,95,0.00,,,0.00,weatherlink.com 1.10,2013-09-19 06:12:00,
2013-09-19 02:28:00,74.8,73.0,30.02,WNW,285,0.0,0.0,95,0.00,,,0.00,weatherlink.com 1.10,2013-09-19 06:28:00,
2013-09-19 02:44:00,74.7,73.0,30.01,WNW,285,0.0,0.0,95,0.00,,,0.00,weatherlink.com 1.10,2013-09-19 06:44:00,
2013-09-19 03:00:00,74.6,73.0,30.00,WNW,285,0.0,0.0,96,0.00,,,0.00,weatherlink.com 1.10,2013-09-19 07:00:00,
2013-09-19 03:16:00,74.6,73.0,30.00,WNW,285,0.0,0.0,96,0.00,,,0.00,weatherlink.com 1.10,2013-09-19 07:16:00,
2013-09-19 03:32:00,74.8,74.0,30.00,WNW,297,0.0,0.0,96,0.00,,,0.00,weatherlink.com 1.10,2013-09-19 07:32:00,
2013-09-19 03:49:00,74.6,73.0,30.00,West,278,0.0,0.0,96,0.00,,,0.00,weatherlink.com 1.10,2013-09-19 07:49:00,
2013-09-19 04:05:00,74.6,73.0,29.99,West,278,0.0,0.0,96,0.00,,,0.00,weatherlink.com 1.10,2013-09-19 08:05:00,
2013-09-19 04:20:00,74.8,74.0,29.99,West,278,0.0,0.0,96,0.00,,,0.00,weatherlink.com 1.10,2013-09-19 08:20:00,
2013-09-19 04:36:00,74.7,74.0,29.98,West,278,0.0,0.0,96,0.00,,,0.00,weatherlink.com 1.10,2013-09-19 08:36:00,
2013-09-19 04:51:00,74.5,73.0,29.98,West,278,0.0,0.0,96,0.00,,,0.00,weatherlink.com 1.10,2013-09-19 08:51:00,
2013-09-19 05:08:00,74.8,74.0,29.98,West,278,0.0,0.0,96,0.00,,,0.00,weatherlink.com 1.10,2013-09-19 09:08:00,
2013-09-19 05:23:00,76.5,75.0,29.98,NE,44,0.0,4.0,96,0.00,,,0.00,weatherlink.com 1.10,2013-09-19 09:23:00,
2013-09-19 05:39:00,79.4,76.0,29.99,ENE,64,4.0,6.0,88,0.00,,,0.00,weatherlink.com 1.10,2013-09-19 09:39:00,
2013-09-19 05:55:00,79.9,76.0,29.99,NE,54,5.0,5.0,87,0.00,,,0.00,weatherlink.com 1.10,2013-09-19 09:55:00,
2013-09-19 06:11:00,80.2,76.0,29.99,NE,50,3.0,6.0,86,0.00,,,0.00,weatherlink.com 1.10,2013-09-19 10:11:00,
2013-09-19 06:27:00,80.3,76.0,30.00,NE,50,3.0,4.0,86,0.00,,,0.00,weatherlink.com 1.10,2013-09-19 10:27:00,
2013-09-19 06:43:00,80.2,76.0,30.00,ENE,60,2.0,4.0,87,0.00,,,0.00,weatherlink.com 1.10,2013-09-19 10:43:00,
2013-09-19 06:59:00,80.2,76.0,30.01,NE,49,1.0,4.0,86,0.00,,,0.00,weatherlink.com 1.10,2013-09-19 10:59:00,
2013-09-19 07:15:00,80.2,76.0,30.01,NE,47,3.0,5.0,87,0.00,,,0.00,weatherlink.com 1.10,2013-09-19 11:15:00,
2013-09-19 07:32:00,80.7,76.0,30.01,ENE,60,3.0,6.0,86,0.00,,,0.00,weatherlink.com 1.10,2013-09-19 11:32:00,
2013-09-19 07:46:00,80.9,76.0,30.02,NE,53,4.0,6.0,84,0.00,,,0.00,weatherlink.com 1.10,2013-09-19 11:46:00,
2013-09-19 08:18:00,81.6,77.0,30.02,NE,41,1.0,5.0,85,0.00,,,0.00,weatherlink.com 1.10,2013-09-19 12:18:00,
2013-09-19 08:35:00,83.0,77.0,30.03,NE,55,3.0,9.0,82,0.00,,,0.00,weatherlink.com 1.10,2013-09-19 12:35:00,
2013-09-19 08:50:00,82.8,77.0,30.03,ENE,60,5.0,8.0,82,0.00,,,0.00,weatherlink.com 1.10,2013-09-19 12:50:00,
2013-09-19 09:06:00,83.4,77.0,30.04,NE,55,9.0,9.0,80,0.00,,,0.00,weatherlink.com 1.10,2013-09-19 13:06:00,
2013-09-19 09:22:00,83.6,77.0,30.04,NNE,30,8.0,10.0,79,0.00,,,0.00,weatherlink.com 1.10,2013-09-19 13:22:00,
2013-09-19 09:38:00,83.6,77.0,30.04,NE,46,6.0,11.0,81,0.00,,,0.00,weatherlink.com 1.10,2013-09-19 13:38:00,
2013-09-19 09:54:00,83.9,76.0,30.05,ENE,72,8.0,11.0,77,0.00,,,0.00,weatherlink.com 1.10,2013-09-19 13:54:00,
2013-09-19 10:10:00,83.6,77.0,30.05,NE,41,7.0,11.0,79,0.00,,,0.00,weatherlink.com 1.10,2013-09-19 14:10:00,
2013-09-19 10:26:00,83.9,77.0,30.05,NE,56,9.0,10.0,80,0.00,,,0.00,weatherlink.com 1.10,2013-09-19 14:26:00,
2013-09-19 10:42:00,84.1,77.0,30.06,NNE,32,5.0,11.0,79,0.00,,,0.00,weatherlink.com 1.10,2013-09-19 14:42:00,
2013-09-19 10:58:00,83.8,78.0,30.06,NE,51,7.0,14.0,82,0.00,,,0.00,weatherlink.com 1.10,2013-09-19 14:58:00,
2013-09-19 11:13:00,84.3,76.0,30.07,ENE,65,10.0,11.0,77,0.00,,,0.00,weatherlink.com 1.10,2013-09-19 15:13:00,
2013-09-19 11:29:00,84.4,76.0,30.07,NE,50,9.0,14.0,76,0.00,,,0.00,weatherlink.com 1.10,2013-09-19 15:29:00,
2013-09-19 11:46:00,84.7,78.0,30.07,NNE,30,6.0,11.0,79,0.00,,,0.00,weatherlink.com 1.10,2013-09-19 15:46:00,
2013-09-19 12:02:00,84.5,76.0,30.06,ENE,75,11.0,13.0,76,0.00,,,0.00,weatherlink.com 1.10,2013-09-19 16:02:00,
2013-09-19 12:17:00,83.7,77.0,30.06,NE,53,6.0,13.0,79,0.00,,,0.00,weatherlink.com 1.10,2013-09-19 16:17:00,
2013-09-19 12:33:00,84.5,76.0,30.05,ENE,61,9.0,13.0,76,0.00,,,0.00,weatherlink.com 1.10,2013-09-19 16:33:00,
2013-09-19 12:49:00,84.0,77.0,30.05,NE,49,6.0,12.0,78,0.00,,,0.00,weatherlink.com 1.10,2013-09-19 16:49:00,
2013-09-19 13:04:00,83.7,77.0,30.05,East,79,10.0,13.0,79,0.00,,,0.00,weatherlink.com 1.10,2013-09-19 17:04:00,
2013-09-19 13:21:00,83.2,76.0,30.04,ENE,72,9.0,13.0,80,0.00,,,0.00,weatherlink.com 1.10,2013-09-19 17:21:00,
2013-09-19 13:37:00,82.8,76.0,30.04,East,92,8.0,11.0,81,0.00,,,0.00,weatherlink.com 1.10,2013-09-19 17:37:00,
2013-09-19 13:52:00,82.4,76.0,30.04,ENE,78,6.0,13.0,81,0.01,,,0.01,weatherlink.com 1.10,2013-09-19 17:52:00,
2013-09-19 14:08:00,82.6,76.0,30.03,ENE,69,9.0,13.0,80,0.01,,,0.01,weatherlink.com 1.10,2013-09-19 18:08:00,
2013-09-19 14:24:00,82.9,76.0,30.03,ENE,58,9.0,12.0,79,0.01,,,0.01,weatherlink.com 1.10,2013-09-19 18:24:00,
2013-09-19 14:40:00,83.7,77.0,30.02,NNE,30,9.0,14.0,79,0.01,,,0.01,weatherlink.com 1.10,2013-09-19 18:40:00,
2013-09-19 14:57:00,83.5,77.0,30.02,ENE,72,16.0,16.0,80,0.00,,,0.01,weatherlink.com 1.10,2013-09-19 18:57:00,
2013-09-19 15:12:00,83.3,77.0,30.02,ENE,57,9.0,14.0,80,0.00,,,0.01,weatherlink.com 1.10,2013-09-19 19:12:00,
2013-09-19 15:28:00,83.1,76.0,30.02,NNE,23,12.0,12.0,80,0.00,,,0.01,weatherlink.com 1.10,2013-09-19 19:28:00,
2013-09-19 15:44:00,80.3,76.0,30.02,NE,39,12.0,16.0,85,0.01,,,0.02,weatherlink.com 1.10,2013-09-19 19:44:00,
2013-09-19 15:59:00,78.3,75.0,30.02,NE,43,4.0,11.0,88,0.05,,,0.06,weatherlink.com 1.10,2013-09-19 19:59:00,
2013-09-19 16:32:00,80.5,76.0,30.02,NE,40,6.0,9.0,85,0.05,,,0.06,weatherlink.com 1.10,2013-09-19 20:32:00,
2013-09-19 16:48:00,81.0,77.0,30.02,ENE,70,8.0,12.0,87,0.00,,,0.06,weatherlink.com 1.10,2013-09-19 20:48:00,
2013-09-19 17:03:00,81.1,76.0,30.02,ENE,71,5.0,11.0,83,0.00,,,0.06,weatherlink.com 1.10,2013-09-19 21:03:00,
2013-09-19 17:19:00,80.5,76.0,30.02,North,4,13.0,14.0,85,0.00,,,0.06,weatherlink.com 1.10,2013-09-19 21:19:00,
2013-09-19 17:36:00,80.0,76.0,30.02,North,356,5.0,10.0,86,0.00,,,0.06,weatherlink.com 1.10,2013-09-19 21:36:00,
2013-09-19 17:51:00,80.1,75.0,30.02,ENE,65,2.0,7.0,83,0.00,,,0.06,weatherlink.com 1.10,2013-09-19 21:51:00,
2013-09-19 18:07:00,81.2,75.0,30.02,NE,39,4.0,11.0,82,0.00,,,0.06,weatherlink.com 1.10,2013-09-19 22:07:00,
2013-09-19 18:22:00,80.7,76.0,30.02,NE,50,7.0,12.0,84,0.01,,,0.07,weatherlink.com 1.10,2013-09-19 22:22:00,
2013-09-19 18:38:00,79.6,76.0,30.03,NE,41,1.0,12.0,87,0.01,,,0.07,weatherlink.com 1.10,2013-09-19 22:38:00,
2013-09-19 18:55:00,80.1,75.0,30.03,NE,56,4.0,8.0,85,0.02,,,0.08,weatherlink.com 1.10,2013-09-19 22:55:00,
2013-09-19 19:10:00,81.1,75.0,30.03,NE,46,10.0,17.0,82,0.02,,,0.08,weatherlink.com 1.10,2013-09-19 23:10:00,
2013-09-19 19:26:00,81.2,75.0,30.03,ENE,65,10.0,12.0,80,0.01,,,0.08,weatherlink.com 1.10,2013-09-19 23:26:00,
2013-09-19 19:42:00,81.4,75.0,30.03,East,81,12.0,13.0,80,0.00,,,0.08,weatherlink.com 1.10,2013-09-19 23:42:00,
2013-09-19 19:58:00,81.3,74.0,30.03,ENE,60,11.0,13.0,79,0.00,,,0.08,weatherlink.com 1.10,2013-09-19 23:58:00,
2013-09-19 20:14:00,81.2,75.0,30.03,NE,56,7.0,14.0,80,0.00,,,0.08,weatherlink.com 1.10,2013-09-20 00:14:00,
2013-09-19 20:30:00,81.2,74.0,30.04,ENE,65,7.0,14.0,79,0.00,,,0.08,weatherlink.com 1.10,2013-09-20 00:30:00,
2013-09-19 20:45:00,81.0,74.0,30.05,NE,56,13.0,15.0,78,0.00,,,0.08,weatherlink.com 1.10,2013-09-20 00:45:00,
2013-09-19 21:02:00,81.0,73.0,30.05,ENE,65,7.0,15.0,77,0.00,,,0.08,weatherlink.com 1.10,2013-09-20 01:02:00,
2013-09-19 21:17:00,81.0,73.0,30.05,ENE,65,7.0,13.0,77,0.00,,,0.08,weatherlink.com 1.10,2013-09-20 01:17:00,
2013-09-19 21:33:00,80.9,73.0,30.05,ENE,72,12.0,12.0,76,0.00,,,0.08,weatherlink.com 1.10,2013-09-20 01:33:00,
2013-09-19 21:49:00,80.9,72.0,30.06,NE,47,7.0,11.0,74,0.00,,,0.08,weatherlink.com 1.10,2013-09-20 01:49:00,
2013-09-19 22:06:00,80.8,73.0,30.06,NE,55,7.0,10.0,76,0.00,,,0.08,weatherlink.com 1.10,2013-09-20 02:06:00,
2013-09-19 22:21:00,80.8,72.0,30.06,NE,55,7.0,10.0,74,0.00,,,0.08,weatherlink.com 1.10,2013-09-20 02:21:00,
2013-09-19 22:37:00,80.9,72.0,30.06,NE,46,6.0,12.0,74,0.00,,,0.08,weatherlink.com 1.10,2013-09-20 02:37:00,
2013-09-19 22:53:00,80.7,71.0,30.06,NE,44,6.0,12.0,73,0.00,,,0.08,weatherlink.com 1.10,2013-09-20 02:53:00,
2013-09-19 23:09:00,80.7,72.0,30.06,ENE,64,5.0,12.0,74,0.00,,,0.08,weatherlink.com 1.10,2013-09-20 03:09:00,
2013-09-19 23:24:00,80.6,72.0,30.05,ENE,58,5.0,7.0,75,0.00,,,0.08,weatherlink.com 1.10,2013-09-20 03:24:00,
2013-09-19 23:40:00,80.7,72.0,30.05,ENE,74,7.0,9.0,74,0.00,,,0.08,weatherlink.com 1.10,2013-09-20 03:40:00,
2013-09-19 23:57:00,80.6,72.0,30.05,ENE,64,4.0,9.0,74,0.00,,,0.08,weatherlink.com 1.10,2013-09-20 03:57:00,